Time;durP1;ratioP1;P1;durP2;ratioP2;P2;SDS_P1;SDS_P2;PMS_P1;PMS_P2;Temp;Humidity;BMP_temperature;BMP_pressure;BME280_temperature;BME280_humidity;BME280_pressure;Samples;Min_cycle;Max_cycle;Signal;HPM_P1;HPM_P2
2023/07/29 00:00:12;;;;;;;1.80;1.40;;;;;;;-145.69;78.40;52083.97;5094788;28;20544;-83
2023/07/29 00:02:38;;;;;;;2.58;1.63;;;;;;;-145.69;77.98;52060.22;5094852;28;20667;-82
2023/07/29 00:05:05;;;;;;;2.03;1.45;;;;;;;-145.69;78.49;52044.38;5094817;28;20201;-83
2023/07/29 00:07:34;;;;;;;2.08;1.35;;;;;;;-145.69;78.09;52052.28;5094900;28;20210;-83
2023/07/29 00:10:01;;;;;;;1.92;1.30;;;;;;;-145.69;78.55;52064.16;5094409;28;20277;-83
2023/07/29 00:12:27;;;;;;;3.45;1.35;;;;;;;-145.69;78.34;52076.03;5094575;28;20225;-83
2023/07/29 00:14:54;;;;;;;1.60;1.25;;;;;;;-145.69;78.15;52064.16;5094512;28;20226;-82
2023/07/29 00:17:21;;;;;;;1.67;1.40;;;;;;;-145.69;78.80;52083.97;5094781;28;20292;-82
2023/07/29 00:19:50;;;;;;;3.08;1.60;;;;;;;-145.69;79.11;52060.22;5094808;28;20202;-84
2023/07/29 00:22:27;;;;;;;1.63;1.30;;;;;;;-145.69;78.93;52076.03;5094815;28;20296;-83
2023/07/29 00:24:57;;;;;;;3.75;1.38;;;;;;;-145.69;78.44;52091.88;5094579;28;20217;-84
2023/07/29 00:27:24;;;;;;;1.40;1.10;;;;;;;-145.69;78.16;52082.00;5094275;28;20244;-83
2023/07/29 00:29:50;;;;;;;1.55;1.42;;;;;;;-145.69;77.99;52113.66;5092260;28;20194;-83
2023/07/29 00:32:17;;;;;;;2.45;1.42;;;;;;;-145.69;77.57;52080.00;5094463;28;20228;-83
2023/07/29 00:34:46;;;;;;;2.55;1.30;;;;;;;-145.69;78.12;52085.94;5094491;28;20205;-83
2023/07/29 00:37:13;;;;;;;2.08;1.48;;;;;;;-145.69;78.06;52064.16;5094122;28;20209;-83
2023/07/29 00:39:40;;;;;;;2.72;1.40;;;;;;;-145.69;78.23;52060.22;5093513;28;20220;-83
2023/07/29 00:42:08;;;;;;;2.30;1.40;;;;;;;-145.69;78.21;52080.00;5094560;28;20595;-84
2023/07/29 00:44:34;;;;;;;4.85;1.50;;;;;;;-145.69;78.06;52093.88;5094524;28;20202;-84
2023/07/29 00:47:07;;;;;;;1.80;1.45;;;;;;;-145.69;78.54;52083.97;5094256;28;20668;-83
2023/07/29 00:49:34;;;;;;;3.47;1.17;;;;;;;-145.69;79.04;52103.78;5094667;28;20206;-86
2023/07/29 00:52:01;;;;;;;2.58;1.35;;;;;;;-145.69;78.13;52072.09;5094259;28;20218;-82
2023/07/29 00:54:27;;;;;;;2.70;1.52;;;;;;;-145.69;78.40;52076.03;5093989;28;20766;-83
2023/07/29 00:56:54;;;;;;;2.58;1.30;;;;;;;-145.69;77.67;52066.16;5094296;28;20213;-83
2023/07/29 00:59:23;;;;;;;1.85;1.45;;;;;;;-145.69;77.84;52082.00;5094186;28;20209;-83
2023/07/29 01:01:49;;;;;;;1.77;1.17;;;;;;;-145.69;78.50;52093.88;5093731;28;20224;-82
2023/07/29 01:04:16;;;;;;;5.22;1.73;;;;;;;-145.69;76.99;52087.94;5083598;28;20599;-84
2023/07/29 01:06:51;;;;;;;2.15;1.45;;;;;;;-145.69;76.49;52089.91;5094039;28;20237;-83
2023/07/29 01:09:26;;;;;;;3.22;1.30;;;;;;;-145.69;76.11;52060.22;5094366;28;20193;-83
2023/07/29 01:11:58;;;;;;;1.35;1.20;;;;;;;-145.69;76.20;52032.47;5093839;28;20225;-84
2023/07/29 01:14:35;;;;;;;1.70;1.40;;;;;;;-145.69;75.60;52036.44;5093655;28;20261;-83
2023/07/29 01:17:05;;;;;;;2.55;1.65;;;;;;;-145.69;76.17;52040.41;5093649;28;20198;-83
2023/07/29 01:19:46;;;;;;;4.07;1.48;;;;;;;-145.69;75.12;52072.09;5093130;28;20202;-82
2023/07/29 01:22:14;;;;;;;2.22;1.40;;;;;;;-145.69;77.10;52076.03;5093651;28;20652;-82
2023/07/29 01:24:42;;;;;;;3.60;1.50;;;;;;;-145.69;76.60;52072.09;5093211;28;20225;-82
2023/07/29 01:27:08;;;;;;;1.48;1.15;;;;;;;-145.69;76.65;52105.75;5094143;28;20206;-84
2023/07/29 01:29:35;;;;;;;3.85;1.38;;;;;;;-145.69;76.20;52080.00;5093849;28;20198;-82
2023/07/29 01:32:08;;;;;;;2.05;1.30;;;;;;;-145.69;77.09;52064.16;5093661;28;20256;-84
2023/07/29 01:34:42;;;;;;;6.10;1.33;;;;;;;-145.69;76.05;52052.28;5093509;28;20204;-83
2023/07/29 01:37:13;;;;;;;3.25;1.60;;;;;;;-145.69;78.01;52111.69;5093801;28;20198;-83
2023/07/29 01:39:45;;;;;;;2.85;1.65;;;;;;;-145.69;77.13;52083.97;5093632;28;20197;-83
2023/07/29 01:42:12;;;;;;;6.00;1.60;;;;;;;-145.69;77.27;52060.22;5093555;28;20290;-83
2023/07/29 01:44:39;;;;;;;1.80;1.45;;;;;;;-145.69;77.14;52093.88;5092969;28;20225;-84
2023/07/29 01:47:06;;;;;;;2.17;1.40;;;;;;;-145.69;76.25;52091.88;5095183;28;20229;-85
2023/07/29 01:49:32;;;;;;;2.10;1.63;;;;;;;-145.69;76.69;52076.03;5093715;28;20193;-83
2023/07/29 01:52:01;;;;;;;2.25;1.58;;;;;;;-145.69;76.81;52097.84;5093253;28;20642;-82
2023/07/29 01:54:27;;;;;;;4.20;1.52;;;;;;;-145.69;76.05;52068.13;5093539;28;20259;-82
2023/07/29 01:56:55;;;;;;;2.28;1.40;;;;;;;-145.69;76.36;52044.38;5093098;28;20208;-83
2023/07/29 01:59:22;;;;;;;4.90;1.73;;;;;;;-145.69;76.69;52103.78;5093554;28;20202;-83
2023/07/29 02:01:48;;;;;;;1.90;1.50;;;;;;;-145.69;77.02;52083.97;5094701;28;20201;-84
2023/07/29 02:04:15;;;;;;;3.78;1.88;;;;;;;-145.69;76.56;52091.88;5094254;28;20196;-84
2023/07/29 02:06:41;;;;;;;2.67;1.60;;;;;;;-145.69;77.48;52087.94;5093343;28;20194;-82
2023/07/29 02:09:08;;;;;;;4.28;1.85;;;;;;;-145.69;78.22;52115.66;5093334;28;20675;-84
2023/07/29 02:11:35;;;;;;;6.40;2.08;;;;;;;-145.69;78.55;52113.66;5093041;28;20317;-83
2023/07/29 02:14:03;;;;;;;1.92;1.60;;;;;;;-145.69;79.73;52078.03;5092576;28;20552;-83
2023/07/29 02:16:34;;;;;;;1.70;1.42;;;;;;;-145.69;79.21;52099.81;5093209;28;20285;-83
2023/07/29 02:19:01;;;;;;;3.28;1.80;;;;;;;-145.69;80.70;52111.69;5094078;28;20198;-83
2023/07/29 02:21:27;;;;;;;1.90;1.52;;;;;;;-145.69;80.10;52080.00;5093153;28;20285;-83
2023/07/29 02:23:54;;;;;;;2.92;1.70;;;;;;;-145.69;80.83;52060.22;5092920;28;20309;-84
2023/07/29 02:26:20;;;;;;;2.55;2.15;;;;;;;-145.69;81.69;52105.75;5092936;28;20668;-82
2023/07/29 02:28:47;;;;;;;2.72;2.00;;;;;;;-145.69;82.62;52105.75;5092875;28;20281;-82
2023/07/29 02:31:18;;;;;;;4.88;1.80;;;;;;;-145.69;83.35;52115.66;5093107;28;20286;-83
2023/07/29 02:33:45;;;;;;;7.28;1.75;;;;;;;-145.69;83.63;52123.56;5094142;28;20197;-82
2023/07/29 02:36:13;;;;;;;3.88;1.58;;;;;;;-145.69;84.18;52119.63;5092717;28;20244;-83
2023/07/29 02:38:39;;;;;;;4.18;1.80;;;;;;;-145.69;84.14;52151.28;5074057;28;20201;-83
2023/07/29 02:41:06;;;;;;;1.77;1.60;;;;;;;-145.69;84.55;52091.88;5073006;28;20211;-83
2023/07/29 02:43:35;;;;;;;2.85;1.80;;;;;;;-145.69;84.21;52103.78;5073105;28;20297;-83
2023/07/29 02:46:02;;;;;;;3.88;1.88;;;;;;;-145.69;84.36;52095.84;5087043;28;20247;-82
2023/07/29 02:48:32;;;;;;;3.10;1.80;;;;;;;-145.69;84.18;52123.56;5092493;28;20203;-82
2023/07/29 02:50:59;;;;;;;5.57;1.65;;;;;;;-145.69;84.87;52101.78;5092506;28;20569;-83
2023/07/29 02:53:26;;;;;;;2.88;2.10;;;;;;;-145.69;84.99;52087.94;5092361;28;20291;-83
2023/07/29 02:55:52;;;;;;;3.15;2.03;;;;;;;-145.69;84.83;52139.41;5093149;28;20291;-83
2023/07/29 02:58:19;;;;;;;3.22;1.83;;;;;;;-145.69;83.98;52101.78;5092327;28;20293;-81
2023/07/29 03:00:47;;;;;;;2.40;1.67;;;;;;;-145.69;84.38;52135.47;5092520;28;20206;-84
2023/07/29 03:03:16;;;;;;;3.00;1.40;;;;;;;-145.69;84.67;52105.75;5096170;28;20206;-82
2023/07/29 03:05:47;;;;;;;3.70;1.58;;;;;;;-145.69;84.94;52119.63;5095919;28;20714;-83
2023/07/29 03:08:13;;;;;;;7.30;1.70;;;;;;;-145.69;85.11;52127.53;5096075;28;20236;-83
2023/07/29 03:10:40;;;;;;;3.25;1.70;;;;;;;-145.69;84.77;52113.66;5096255;28;20289;-83
2023/07/29 03:13:06;;;;;;;4.57;1.70;;;;;;;-145.69;88.00;52091.88;5095004;28;20461;-82
2023/07/29 03:15:36;;;;;;;2.55;2.00;;;;;;;-145.69;86.31;52105.75;5095515;28;20261;-83
2023/07/29 03:18:02;;;;;;;4.13;1.38;;;;;;;-145.69;86.15;52119.63;5095695;28;20201;-82
2023/07/29 03:20:30;;;;;;;2.03;1.50;;;;;;;-145.69;86.36;52119.63;5095693;28;20229;-82
2023/07/29 03:22:58;;;;;;;3.63;2.15;;;;;;;-145.69;85.90;52095.84;5095387;28;20716;-82
2023/07/29 03:25:29;;;;;;;2.60;1.63;;;;;;;-145.69;86.34;52099.81;5095802;28;20205;-84
2023/07/29 03:27:56;;;;;;;2.17;1.50;;;;;;;-145.69;86.14;52103.78;5095824;28;20233;-83
2023/07/29 03:30:25;;;;;;;2.22;1.52;;;;;;;-145.69;86.02;52107.72;5095775;28;20205;-83
2023/07/29 03:32:52;;;;;;;5.18;1.45;;;;;;;-145.69;85.66;52087.94;5094688;28;20229;-82
2023/07/29 03:35:19;;;;;;;2.75;1.58;;;;;;;-145.69;85.98;52083.97;5096003;28;20202;-84
2023/07/29 03:37:45;;;;;;;2.30;1.50;;;;;;;-145.69;85.57;52111.69;5095615;28;20296;-82
2023/07/29 03:40:13;;;;;;;1.92;1.45;;;;;;;-145.69;86.09;52095.84;5095415;28;20296;-82
2023/07/29 03:42:40;;;;;;;2.90;1.40;;;;;;;-145.69;86.34;52099.81;5095321;28;20202;-82
2023/07/29 03:45:07;;;;;;;2.45;1.70;;;;;;;-145.69;90.47;52089.91;5093715;28;20439;-82
2023/07/29 03:47:34;;;;;;;5.15;1.55;;;;;;;-145.69;88.55;52115.66;5094862;28;20202;-83
2023/07/29 03:50:00;;;;;;;3.08;1.70;;;;;;;-145.69;86.58;52093.88;5095299;28;20271;-83
2023/07/29 03:52:27;;;;;;;2.38;1.48;;;;;;;-145.69;86.68;52083.97;5095052;28;20233;-82
2023/07/29 03:54:56;;;;;;;2.58;1.58;;;;;;;-145.69;85.55;52099.81;5095087;28;20205;-82
2023/07/29 03:57:26;;;;;;;2.95;1.85;;;;;;;-145.69;85.93;52101.78;5095021;28;20199;-81
2023/07/29 03:59:52;;;;;;;5.32;1.50;;;;;;;-145.69;86.04;52155.25;5094696;28;20197;-82
2023/07/29 04:02:19;;;;;;;3.80;1.50;;;;;;;-145.69;86.46;52095.84;5094959;28;20198;-82
2023/07/29 04:04:47;;;;;;;2.90;1.98;;;;;;;-145.69;86.65;52111.69;5094722;28;20671;-83
2023/07/29 04:07:14;;;;;;;1.90;1.55;;;;;;;-145.69;85.98;52117.63;5094819;28;20236;-82
2023/07/29 04:09:40;;;;;;;5.20;1.80;;;;;;;-145.69;86.50;52123.56;5094749;28;20628;-82
2023/07/29 04:12:07;;;;;;;2.15;1.85;;;;;;;-145.69;86.80;52099.81;5094530;28;20222;-82
2023/07/29 04:14:35;;;;;;;3.08;1.40;;;;;;;-145.69;87.07;52111.69;5093597;28;20234;-82
2023/07/29 04:17:02;;;;;;;3.08;1.95;;;;;;;-145.69;86.90;52099.81;5094400;28;20197;-82
2023/07/29 04:19:28;;;;;;;3.00;1.83;;;;;;;-145.69;87.31;52111.69;5094229;28;20202;-82
2023/07/29 04:21:55;;;;;;;5.68;1.77;;;;;;;-145.69;87.17;52099.81;5093622;28;20187;-82
2023/07/29 04:24:23;;;;;;;2.78;1.70;;;;;;;-145.69;87.12;52107.72;5094346;28;20202;-83
2023/07/29 04:26:51;;;;;;;3.22;2.15;;;;;;;-145.69;86.61;52115.66;5094386;28;20205;-82
2023/07/29 04:29:18;;;;;;;2.78;2.00;;;;;;;-145.69;86.67;52085.94;5094248;28;20660;-83
2023/07/29 04:31:48;;;;;;;3.90;2.05;;;;;;;-145.69;85.69;52111.69;5094367;28;20289;-81
2023/07/29 04:34:14;;;;;;;2.85;1.80;;;;;;;-145.69;86.68;52113.66;5094380;28;20198;-82
2023/07/29 04:36:41;;;;;;;3.95;2.00;;;;;;;-145.69;85.91;52083.97;5079614;28;20226;-83
2023/07/29 04:39:08;;;;;;;4.53;2.33;;;;;;;-145.69;86.22;52107.72;5073817;28;20202;-81
2023/07/29 04:41:34;;;;;;;3.55;2.05;;;;;;;-145.69;84.97;52137.44;5073569;28;20199;-81
2023/07/29 04:44:01;;;;;;;2.47;1.85;;;;;;;-145.69;85.60;52080.00;5073861;28;20210;-82
2023/07/29 04:46:30;;;;;;;2.60;1.98;;;;;;;-145.69;85.33;52066.16;5073871;28;20249;-82
2023/07/29 04:48:58;;;;;;;4.70;2.08;;;;;;;-145.69;83.46;52076.03;5081118;28;20596;-82
2023/07/29 04:51:25;;;;;;;5.15;2.05;;;;;;;-145.69;82.99;52099.81;5094051;28;20202;-81
2023/07/29 04:53:53;;;;;;;3.20;1.98;;;;;;;-145.69;84.25;52099.81;5093882;28;20222;-81
2023/07/29 04:56:20;;;;;;;2.67;1.80;;;;;;;-145.69;84.21;52082.00;5093953;28;20197;-83
2023/07/29 04:58:49;;;;;;;1.95;1.48;;;;;;;-145.69;83.47;52083.97;5093738;28;20205;-82
2023/07/29 05:01:15;;;;;;;3.53;1.95;;;;;;;-145.69;84.85;52060.22;5093705;28;20289;-82
2023/07/29 05:03:45;;;;;;;2.78;1.90;;;;;;;-145.69;83.71;52095.84;5093862;28;20292;-82
2023/07/29 05:06:13;;;;;;;5.53;2.00;;;;;;;-145.69;83.26;52080.00;5093575;28;20733;-82
2023/07/29 05:08:40;;;;;;;1.77;1.55;;;;;;;-145.69;83.14;52083.97;5093613;28;20205;-82
2023/07/29 05:11:07;;;;;;;2.85;1.77;;;;;;;-145.69;82.84;52024.56;5093666;28;20208;-82
2023/07/29 05:13:33;;;;;;;2.47;1.73;;;;;;;-145.69;82.11;52085.94;5093774;28;20226;-82
2023/07/29 05:16:00;;;;;;;2.35;1.80;;;;;;;-145.69;79.07;52072.09;5093433;28;20323;-82
2023/07/29 05:18:26;;;;;;;3.03;1.80;;;;;;;-145.69;79.01;52095.84;5092839;28;20439;-81
2023/07/29 05:20:53;;;;;;;4.05;1.80;;;;;;;-145.69;79.04;52052.28;5092945;28;20281;-81
2023/07/29 05:23:21;;;;;;;3.15;1.95;;;;;;;-145.69;75.57;52038.44;5093248;28;20201;-80
2023/07/29 05:25:47;;;;;;;5.20;2.13;;;;;;;-145.69;75.28;52060.22;5093253;28;20201;-80
2023/07/29 05:28:14;;;;;;;5.28;1.75;;;;;;;-145.69;74.96;52044.38;5093524;28;20202;-82
2023/07/29 05:30:40;;;;;;;4.70;2.30;;;;;;;-145.69;74.45;52048.31;5093416;28;20240;-83
2023/07/29 05:33:08;;;;;;;5.13;2.28;;;;;;;-145.69;75.10;52052.28;5093256;28;20704;-82
2023/07/29 05:35:34;;;;;;;3.53;1.83;;;;;;;-145.69;74.71;52028.53;5093338;28;20202;-82
2023/07/29 05:38:03;;;;;;;4.85;1.73;;;;;;;-145.69;73.68;52054.25;5093318;28;20202;-83
2023/07/29 05:40:31;;;;;;;2.92;1.52;;;;;;;-145.69;71.37;52008.72;5093036;28;20604;-81
2023/07/29 05:42:57;;;;;;;3.10;1.85;;;;;;;-145.69;70.46;52002.78;5092835;28;20289;-82
2023/07/29 05:45:24;;;;;;;3.70;1.58;;;;;;;-145.69;69.39;52012.69;5093397;28;20194;-82
2023/07/29 05:47:50;;;;;;;2.75;1.73;;;;;;;-145.69;66.66;52012.69;5093341;28;20197;-82
2023/07/29 05:50:17;;;;;;;3.10;1.90;;;;;;;-145.69;66.93;52002.78;5092345;28;20214;-81
2023/07/29 05:52:43;;;;;;;3.55;1.73;;;;;;;-145.69;66.81;52010.69;5092950;28;20230;-81
2023/07/29 05:55:10;;;;;;;2.80;1.55;;;;;;;-145.69;63.64;52044.38;5093130;28;20197;-82
2023/07/29 05:57:39;;;;;;;3.60;1.83;;;;;;;-145.69;64.09;51990.91;5092688;28;20205;-81
2023/07/29 06:00:07;;;;;;;2.47;1.80;;;;;;;-145.69;65.22;52028.53;5092922;28;20247;-82
2023/07/29 06:02:33;;;;;;;5.20;1.80;;;;;;;-145.69;65.33;52006.75;5092849;28;20280;-81
2023/07/29 06:05:03;;;;;;;2.75;1.73;;;;;;;-145.69;65.52;52020.59;5092473;28;20205;-80
2023/07/29 06:07:31;;;;;;;2.80;2.05;;;;;;;-145.69;64.61;52006.75;5092769;28;20247;-81
2023/07/29 06:09:58;;;;;;;3.55;1.77;;;;;;;-145.69;65.31;52020.59;5092515;28;20198;-81
2023/07/29 06:12:25;;;;;;;2.67;1.63;;;;;;;-145.69;65.18;52008.72;5092473;28;20645;-85
2023/07/29 06:14:53;;;;;;;2.60;1.60;;;;;;;-145.69;64.83;52012.69;5092112;28;20222;-81
2023/07/29 06:17:24;;;;;;;2.78;1.90;;;;;;;-145.69;64.31;52034.47;5092229;28;20208;-81
2023/07/29 06:19:51;;;;;;;2.55;1.73;;;;;;;-145.69;64.06;52018.63;5092675;28;20727;-82
2023/07/29 06:22:18;;;;;;;2.47;1.70;;;;;;;-145.69;64.13;52028.53;5092454;28;20668;-81
2023/07/29 06:24:44;;;;;;;2.20;1.42;;;;;;;-145.69;59.82;51961.19;5092601;28;20644;-80
2023/07/29 06:27:11;;;;;;;2.97;1.60;;;;;;;-145.69;56.10;51953.28;5092716;28;20209;-81
2023/07/29 06:29:37;;;;;;;3.33;2.00;;;;;;;-145.69;54.33;51957.25;5092609;28;20671;-82
2023/07/29 06:32:06;;;;;;;5.88;1.85;;;;;;;-145.69;53.63;51953.28;5092253;28;20198;-81
2023/07/29 06:34:33;;;;;;;3.42;1.30;;;;;;;-145.69;54.14;51963.19;5092327;28;20228;-81
2023/07/29 06:36:59;;;;;;;2.97;1.73;;;;;;;-145.69;53.14;51897.84;5094725;28;20202;-81
2023/07/29 06:39:26;;;;;;;2.47;1.65;;;;;;;-145.69;52.14;51965.16;5096550;28;20202;-81
2023/07/29 06:41:52;;;;;;;5.80;1.88;;;;;;;-145.69;52.89;51949.31;5083682;28;20230;-80
2023/07/29 06:44:19;;;;;;;2.45;1.40;;;;;;;-145.69;53.04;51963.19;5079160;28;20194;-82
2023/07/29 06:46:45;;;;;;;2.47;1.80;;;;;;;-145.69;53.14;51947.34;5096260;28;20191;-82
2023/07/29 06:49:13;;;;;;;1.80;1.13;;;;;;;-145.69;52.65;51939.41;5095876;28;20201;-81
2023/07/29 06:51:40;;;;;;;2.22;1.40;;;;;;;-145.69;52.28;51921.59;5096452;28;20194;-82
2023/07/29 06:54:07;;;;;;;2.13;1.48;;;;;;;-145.69;51.93;51945.34;5096271;28;20264;-80
2023/07/29 06:56:33;;;;;;;2.80;1.42;;;;;;;-145.69;52.22;51935.47;5096167;28;20206;-82
2023/07/29 06:58:59;;;;;;;2.08;1.35;;;;;;;-145.69;51.86;51937.44;5095847;28;20220;-82
2023/07/29 07:01:26;;;;;;;2.47;1.52;;;;;;;-145.69;52.02;51957.25;5096199;28;20205;-83
2023/07/29 07:03:54;;;;;;;2.13;1.33;;;;;;;-145.69;52.48;51949.31;5096045;28;20616;-84
2023/07/29 07:06:24;;;;;;;5.07;1.50;;;;;;;-145.69;50.74;51947.34;5096730;28;20201;-85
2023/07/29 07:08:51;;;;;;;4.82;1.70;;;;;;;-145.69;51.93;51923.56;5096037;28;20210;-83
2023/07/29 07:11:18;;;;;;;1.73;1.27;;;;;;;-145.69;51.91;51937.44;5095872;28;20275;-81
2023/07/29 07:13:45;;;;;;;2.13;1.58;;;;;;;-145.69;51.02;51935.47;5095491;28;20230;-81
2023/07/29 07:16:12;;;;;;;2.20;1.27;;;;;;;-145.69;51.76;51949.31;5095105;28;20226;-82
2023/07/29 07:18:38;;;;;;;2.17;1.35;;;;;;;-145.69;51.25;51977.03;5095965;28;20217;-82
2023/07/29 07:21:05;;;;;;;2.35;1.52;;;;;;;-145.69;50.86;51925.56;5095823;28;20224;-82
2023/07/29 07:23:33;;;;;;;2.63;1.67;;;;;;;-145.69;50.05;51927.53;5096035;28;20210;-82
2023/07/29 07:25:59;;;;;;;4.45;1.50;;;;;;;-145.69;49.50;51951.28;5095350;28;20661;-82
2023/07/29 07:28:26;;;;;;;3.80;1.92;;;;;;;-145.69;49.70;51917.63;5096082;28;20248;-83
2023/07/29 07:30:52;;;;;;;7.10;1.83;;;;;;;-145.69;51.81;51939.41;5095974;28;20296;-82
2023/07/29 07:33:19;;;;;;;2.17;1.63;;;;;;;-145.69;53.98;51937.44;5095777;28;20225;-83
2023/07/29 07:35:45;;;;;;;1.80;1.40;;;;;;;-145.69;56.08;51961.19;5095664;28;20205;-81
2023/07/29 07:38:12;;;;;;;2.45;1.60;;;;;;;-145.69;57.45;51961.19;5095581;28;20202;-81
2023/07/29 07:40:40;;;;;;;2.63;1.75;;;;;;;-145.69;59.75;51992.88;5095598;28;20233;-82
2023/07/29 07:43:17;;;;;;;2.90;1.95;;;;;;;-145.69;60.92;51959.22;5095902;28;20605;-82
2023/07/29 07:45:43;;;;;;;2.75;1.65;;;;;;;-145.69;62.73;51967.13;5094845;28;20194;-82
2023/07/29 07:48:12;;;;;;;3.30;1.90;;;;;;;-145.69;63.38;51961.19;5093910;28;20639;-82
2023/07/29 07:50:39;;;;;;;4.15;2.25;;;;;;;-145.69;64.96;51988.91;5095201;28;20284;-81
2023/07/29 07:53:06;;;;;;;2.53;1.67;;;;;;;-145.69;64.69;52010.69;5094682;28;20194;-81
2023/07/29 07:55:33;;;;;;;2.08;1.75;;;;;;;-145.69;65.63;51988.91;5094946;28;20564;-81
2023/07/29 07:58:01;;;;;;;5.78;2.25;;;;;;;-145.69;69.37;52006.75;5095217;28;20728;-82
2023/07/29 08:00:27;;;;;;;9.23;2.20;;;;;;;-145.69;69.93;52028.53;5095465;28;20198;-80
2023/07/29 08:02:54;;;;;;;4.68;2.60;;;;;;;-145.69;71.03;52020.59;5094460;28;20672;-80
2023/07/29 08:05:20;;;;;;;3.63;2.22;;;;;;;-145.69;71.81;52000.81;5094900;28;20212;-82
2023/07/29 08:07:47;;;;;;;3.70;2.53;;;;;;;-145.69;72.29;52004.75;5094786;28;20202;-80
2023/07/29 08:10:13;;;;;;;5.40;2.58;;;;;;;-145.69;73.25;51953.28;5094841;28;20198;-80
2023/07/29 08:12:40;;;;;;;3.25;2.58;;;;;;;-145.69;72.63;51967.13;5094709;28;20217;-80
2023/07/29 08:15:08;;;;;;;3.65;2.50;;;;;;;-145.69;72.11;51955.25;5093698;28;20238;-81
2023/07/29 08:17:35;;;;;;;5.78;2.33;;;;;;;-145.69;70.09;51961.19;5090794;28;20190;-83
2023/07/29 08:20:01;;;;;;;3.42;2.30;;;;;;;-145.69;68.32;51963.19;5094220;28;20213;-81
2023/07/29 08:22:28;;;;;;;4.18;2.30;;;;;;;-145.69;68.61;51941.41;5094462;28;20210;-83
2023/07/29 08:24:54;;;;;;;3.05;2.08;;;;;;;-145.69;67.40;51977.03;5094713;28;20562;-82
2023/07/29 08:27:21;;;;;;;3.55;2.03;;;;;;;-145.69;69.16;51937.44;5094502;28;20209;-82
2023/07/29 08:29:47;;;;;;;2.38;1.85;;;;;;;-145.69;66.94;51965.16;5095475;28;20691;-83
2023/07/29 08:32:15;;;;;;;3.72;2.20;;;;;;;-145.69;67.84;51961.19;5096237;28;20641;-82
2023/07/29 08:34:41;;;;;;;2.13;1.77;;;;;;;-145.69;69.02;51971.09;5095561;28;20257;-82
2023/07/29 08:37:08;;;;;;;2.75;2.03;;;;;;;-145.69;66.80;51981.00;5077854;28;20214;-82
2023/07/29 08:39:34;;;;;;;2.13;1.58;;;;;;;-145.69;65.50;51969.13;5077219;28;20206;-82
2023/07/29 08:42:05;;;;;;;5.15;1.92;;;;;;;-145.69;63.87;51957.25;5076134;28;20205;-82
2023/07/29 08:44:36;;;;;;;4.07;1.70;;;;;;;-145.69;63.39;51951.28;5095330;28;20201;-82
2023/07/29 08:47:03;;;;;;;3.28;1.80;;;;;;;-145.69;62.63;51969.13;5097742;28;20206;-81
2023/07/29 08:49:33;;;;;;;7.63;1.80;;;;;;;-145.69;61.57;51941.41;5097907;28;20198;-83
2023/07/29 08:52:00;;;;;;;3.58;1.65;;;;;;;-145.69;61.64;51982.97;5097872;28;20209;-82
2023/07/29 08:54:27;;;;;;;3.08;1.80;;;;;;;-145.69;58.38;51969.13;5100051;28;20232;-82
2023/07/29 08:56:54;;;;;;;3.13;1.60;;;;;;;-145.69;58.82;51959.22;5098006;28;20202;-81
2023/07/29 08:59:20;;;;;;;4.75;1.60;;;;;;;-145.69;58.77;51933.47;5099456;28;20281;-82
2023/07/29 09:01:48;;;;;;;4.57;1.80;;;;;;;-145.69;58.46;51941.41;5097494;28;20213;-83
2023/07/29 09:04:14;;;;;;;4.70;2.00;;;;;;;-145.69;56.07;51957.25;5096699;28;20590;-82
2023/07/29 09:06:43;;;;;;;2.40;1.60;;;;;;;-145.69;52.26;51921.59;5095768;28;20194;-82
2023/07/29 09:09:10;;;;;;;2.58;1.60;;;;;;;-145.69;52.44;51913.69;5094533;28;20228;-84
2023/07/29 09:11:37;;;;;;;3.35;1.90;;;;;;;-145.69;52.64;51901.78;5095085;28;20609;-83
2023/07/29 09:14:04;;;;;;;3.70;1.77;;;;;;;-145.69;50.18;51870.13;5093560;28;20233;-83
2023/07/29 09:16:31;;;;;;;3.75;1.88;;;;;;;-145.69;49.79;51911.69;5094574;28;20285;-85
2023/07/29 09:19:03;;;;;;;2.45;1.70;;;;;;;-145.69;47.42;51889.91;5094990;28;20210;-84
2023/07/29 09:21:31;;;;;;;5.78;1.67;;;;;;;-145.69;49.66;51907.72;5094975;28;20201;-83
2023/07/29 09:24:04;;;;;;;2.70;1.83;;;;;;;-145.69;47.65;51895.84;5093469;28;20202;-84
2023/07/29 09:26:31;;;;;;;2.20;1.50;;;;;;;-145.69;49.67;51917.63;5094094;28;20198;-85
2023/07/29 09:28:59;;;;;;;2.80;1.67;;;;;;;-145.69;52.45;51925.56;5093582;28;20202;-82
2023/07/29 09:31:27;;;;;;;2.45;1.65;;;;;;;-145.69;54.32;51925.56;5095199;28;20213;-83
2023/07/29 09:33:56;;;;;;;2.45;1.60;;;;;;;-145.69;54.75;51945.34;5095341;28;20222;-83
2023/07/29 09:36:23;;;;;;;4.47;1.80;;;;;;;-145.69;56.01;51941.41;5093834;28;20221;-83
2023/07/29 09:38:53;;;;;;;4.07;1.67;;;;;;;-145.69;57.63;51941.41;5094279;28;20606;-84
2023/07/29 09:41:23;;;;;;;6.43;2.05;;;;;;;-145.69;68.72;51953.28;5093911;28;20233;-85
2023/07/29 09:43:56;;;;;;;4.22;2.60;;;;;;;-145.69;72.11;51961.19;5093000;28;20205;-80
2023/07/29 09:46:24;;;;;;;3.53;2.15;;;;;;;-145.69;73.84;52012.69;5094766;28;20285;-82
2023/07/29 09:48:53;;;;;;;3.03;2.55;;;;;;;-145.69;77.46;52012.69;5094983;28;20560;-83
2023/07/29 09:51:20;;;;;;;3.72;2.47;;;;;;;-145.69;79.13;52008.72;5094904;28;20226;-84
2023/07/29 09:53:48;;;;;;;5.25;2.67;;;;;;;-145.69;78.53;52012.69;5096274;28;20281;-81
2023/07/29 09:56:15;;;;;;;5.97;2.20;;;;;;;-145.69;79.73;51996.84;5095468;28;20245;-84
2023/07/29 09:58:45;;;;;;;5.53;1.90;;;;;;;-145.69;79.61;52008.72;5095692;28;20209;-82
2023/07/29 10:01:12;;;;;;;7.43;2.85;;;;;;;-145.69;82.24;52026.53;5099286;28;20251;-84
2023/07/29 10:03:39;;;;;;;4.90;2.60;;;;;;;-145.69;82.50;52036.44;5094687;28;20440;-83
2023/07/29 10:06:07;;;;;;;7.05;2.85;;;;;;;-145.69;80.49;52034.47;5097648;28;20556;-82
2023/07/29 10:08:37;;;;;;;4.70;2.95;;;;;;;-145.69;76.07;52024.56;5096176;28;20706;-83
2023/07/29 10:11:06;;;;;;;5.78;2.80;;;;;;;-145.69;74.57;51994.88;5097830;28;20595;-82
2023/07/29 10:13:33;;;;;;;5.72;3.20;;;;;;;-145.69;75.03;52032.47;5101534;28;20208;-82
2023/07/29 10:16:04;;;;;;;4.13;2.83;;;;;;;-145.69;74.70;51994.88;5100330;28;20291;-83
2023/07/29 10:18:32;;;;;;;4.22;2.97;;;;;;;-145.69;71.76;51988.91;5097894;28;20692;-82
2023/07/29 10:21:02;;;;;;;5.28;3.03;;;;;;;-145.69;71.45;51975.06;5100190;28;20668;-83
2023/07/29 10:23:33;;;;;;;5.20;3.00;;;;;;;-145.69;70.39;51951.28;5100381;28;20194;-82
2023/07/29 10:26:05;;;;;;;5.60;2.20;;;;;;;-145.69;65.56;51965.16;5101292;28;20202;-83
2023/07/29 10:28:34;;;;;;;4.43;2.17;;;;;;;-145.69;66.35;51979.03;5080683;28;20259;-83
2023/07/29 10:31:04;;;;;;;3.20;2.17;;;;;;;-145.69;62.67;51949.31;5079986;28;20198;-83
2023/07/29 10:33:34;;;;;;;7.10;2.38;;;;;;;-145.69;61.46;51947.34;5078938;28;20206;-83
2023/07/29 10:36:01;;;;;;;3.15;2.13;;;;;;;-145.69;56.64;51915.66;5080288;28;20242;-84
2023/07/29 10:38:28;;;;;;;5.68;2.35;;;;;;;-145.69;54.77;51933.47;5080330;28;20222;-84
2023/07/29 10:40:57;;;;;;;3.55;2.00;;;;;;;-145.69;51.96;51897.84;5079139;28;20286;-83
2023/07/29 10:43:26;;;;;;;5.13;2.13;;;;;;;-145.69;51.55;51889.91;5078656;28;20222;-84
2023/07/29 10:45:53;;;;;;;3.78;2.25;;;;;;;-145.69;47.84;51901.78;5084624;28;20201;-83
2023/07/29 10:48:43;;;;;;;6.50;2.00;;;;;;;-145.69;47.68;51870.13;5097470;28;20236;-83
2023/07/29 10:51:24;;;;;;;3.85;2.08;;;;;;;-145.69;45.10;51862.19;5097943;28;20225;-83
2023/07/29 10:53:53;;;;;;;2.65;1.73;;;;;;;-145.69;43.23;51866.16;5096996;28;20205;-83
2023/07/29 10:56:27;;;;;;;1.90;1.50;;;;;;;-145.69;42.77;51878.03;5096703;28;20209;-84
2023/07/29 10:58:56;;;;;;;2.38;1.65;;;;;;;-145.69;43.33;51870.13;5097384;28;20206;-83
2023/07/29 11:01:29;;;;;;;2.65;1.50;;;;;;;-145.69;42.61;51870.13;5097843;28;20266;-81
2023/07/29 11:04:26;;;;;;;3.75;1.65;;;;;;;-145.69;42.21;51878.03;5097547;28;20256;-83
2023/07/29 11:07:26;;;;;;;4.20;1.80;;;;;;;-145.69;41.96;51850.31;5097242;28;20205;-84
2023/07/29 11:09:57;;;;;;;3.38;1.60;;;;;;;-145.69;40.96;51858.22;5097496;28;20201;-83
2023/07/29 11:12:45;;;;;;;3.15;1.70;;;;;;;-145.69;40.43;51828.53;5098097;28;20729;-85
2023/07/29 11:15:30;;;;;;;2.50;1.50;;;;;;;-145.69;40.11;51864.16;5094842;28;20238;-83
2023/07/29 11:17:58;;;;;;;2.60;1.60;;;;;;;-145.69;41.14;51858.22;5097140;28;20227;-84
2023/07/29 11:20:27;;;;;;;2.47;1.58;;;;;;;-145.69;41.26;51854.28;5097753;28;20296;-86